createdAt,value
2019-04-24T00:01:43.024Z,14.20
2019-04-24T00:04:36.158Z,15.00
2019-04-24T00:07:05.874Z,15.77
2019-04-24T00:09:39.843Z,17.00
2019-04-24T00:15:00.353Z,17.63
2019-04-24T00:17:20.583Z,14.23
2019-04-24T00:20:24.331Z,16.37
2019-04-24T00:22:27.685Z,15.43
2019-04-24T00:27:38.216Z,18.57
2019-04-24T00:30:01.772Z,17.93
2019-04-24T00:32:41.042Z,17.00
2019-04-24T00:37:53.966Z,16.90
2019-04-24T00:40:08.189Z,19.03
2019-04-24T00:42:46.104Z,17.27
2019-04-24T00:45:22.247Z,15.83
2019-04-24T00:47:58.842Z,16.23
2019-04-24T00:50:14.869Z,17.20
2019-04-24T00:53:29.295Z,18.97
2019-04-24T00:55:27.061Z,16.30
2019-04-24T01:00:33.738Z,19.17
2019-04-24T01:03:30.244Z,16.27
2019-04-24T01:06:23.479Z,16.70
2019-04-24T01:08:47.298Z,15.50
2019-04-24T01:11:39.230Z,16.70
2019-04-24T01:14:09.827Z,19.40
2019-04-24T01:16:34.563Z,18.33
2019-04-24T01:19:08.068Z,17.17
2019-04-24T01:21:41.682Z,17.30
2019-04-24T01:34:54.488Z,15.90
2019-04-24T01:40:02.748Z,14.83
2019-04-24T01:55:09.008Z,21.90
2019-04-24T02:00:31.881Z,18.50
2019-04-24T02:02:54.424Z,17.03
2019-04-24T02:05:20.105Z,17.07
2019-04-24T02:11:23.348Z,17.27
2019-04-24T02:16:02.190Z,22.20
2019-04-24T02:18:43.634Z,16.27
2019-04-24T02:21:03.225Z,19.03
2019-04-24T02:23:39.473Z,18.17
2019-04-24T02:26:15.705Z,14.87
2019-04-24T02:39:43.017Z,18.13
2019-04-24T02:42:30.856Z,18.27
2019-04-24T02:49:54.117Z,16.60
2019-04-24T02:52:27.838Z,17.60
2019-04-24T02:57:40.218Z,19.83
2019-04-24T02:59:52.475Z,16.83
2019-04-24T03:07:47.788Z,19.53
2019-04-24T03:10:25.517Z,20.50
2019-04-24T03:18:08.480Z,19.37
2019-04-24T03:20:58.536Z,21.03
2019-04-24T03:23:19.769Z,20.37
2019-04-24T03:33:52.065Z,20.63
2019-04-24T03:36:18.326Z,19.42
2019-04-24T03:41:36.544Z,22.03
2019-04-24T03:48:57.356Z,17.17
2019-04-24T03:54:07.867Z,17.27
2019-04-24T03:56:41.809Z,17.23
2019-04-24T04:02:26.976Z,22.20
2019-04-24T04:07:17.189Z,21.17
2019-04-24T04:12:58.943Z,23.97
2019-04-24T04:20:24.831Z,19.00
2019-04-24T04:31:07.745Z,19.13
2019-04-24T04:36:06.645Z,16.83
2019-04-24T04:41:37.281Z,21.10
2019-04-24T04:44:06.034Z,18.13
2019-04-24T04:51:48.989Z,17.93
2019-04-24T04:59:51.839Z,20.87
2019-04-24T05:02:29.370Z,17.80
2019-04-24T05:07:33.290Z,17.93
2019-04-24T05:09:57.011Z,19.07
2019-04-24T05:12:30.756Z,18.77
2019-04-24T05:17:48.053Z,17.50
2019-04-24T05:19:52.940Z,19.73
2019-04-24T05:22:28.249Z,19.00
2019-04-24T05:25:36.128Z,17.27
2019-04-24T05:27:51.555Z,14.23
2019-04-24T05:30:32.755Z,16.07
2019-04-24T05:35:55.359Z,18.43
2019-04-24T05:39:12.303Z,17.33
2019-04-24T05:41:33.137Z,18.03
2019-04-24T05:43:58.718Z,16.63
2019-04-24T05:46:39.478Z,17.47
2019-04-24T05:49:14.465Z,18.03
2019-04-24T05:51:40.840Z,17.93
2019-04-24T05:54:26.343Z,17.67
2019-04-24T05:57:25.352Z,18.07
2019-04-24T05:59:40.863Z,18.90
2019-04-24T06:02:38.007Z,18.50
2019-04-24T06:04:59.942Z,20.07
2019-04-24T06:08:03.971Z,19.87
2019-04-24T06:10:47.747Z,18.37
2019-04-24T06:13:27.345Z,24.53
2019-04-24T06:16:28.193Z,17.60
2019-04-24T06:18:57.646Z,20.77
2019-04-24T06:21:23.201Z,19.37
2019-04-24T06:24:19.092Z,15.57
2019-04-24T06:32:05.246Z,19.40
2019-04-24T06:34:19.508Z,20.40
2019-04-24T06:39:55.820Z,20.00
2019-04-24T06:45:37.176Z,22.90
2019-04-24T06:55:46.992Z,15.65
2019-04-24T07:01:06.862Z,15.15
2019-04-24T07:04:26.500Z,16.00
2019-04-24T07:06:46.674Z,18.10
2019-04-24T07:09:45.351Z,13.73
2019-04-24T07:12:31.417Z,11.67
2019-04-24T07:15:12.051Z,13.73
2019-04-24T07:17:42.358Z,14.70
2019-04-24T07:20:27.429Z,13.07
2019-04-24T07:23:07.619Z,17.17
2019-04-24T07:25:57.192Z,14.90
2019-04-24T07:28:30.623Z,15.97
2019-04-24T07:31:21.411Z,11.60
2019-04-24T07:33:57.314Z,10.80
2019-04-24T07:38:58.302Z,17.33
2019-04-24T07:41:46.056Z,14.57
2019-04-24T07:46:42.254Z,15.10
2019-04-24T07:49:17.964Z,14.47
2019-04-24T07:54:43.706Z,11.00
2019-04-24T07:57:23.928Z,10.90
2019-04-24T08:05:15.986Z,9.20
2019-04-24T08:07:47.260Z,12.93
2019-04-24T08:13:29.132Z,11.97
2019-04-24T08:16:03.311Z,10.80
2019-04-24T08:18:28.087Z,9.28
2019-04-24T08:21:08.959Z,10.93
2019-04-24T08:26:18.957Z,8.83
2019-04-24T08:28:54.025Z,11.08
2019-04-24T08:32:06.253Z,10.85
2019-04-24T08:34:51.542Z,9.60
2019-04-24T08:43:17.322Z,9.93
2019-04-24T08:46:21.767Z,11.25
2019-04-24T08:54:13.082Z,12.00
2019-04-24T09:00:06.369Z,9.53
2019-04-24T09:03:05.754Z,9.20
2019-04-24T09:05:37.629Z,9.70
2019-04-24T09:11:10.722Z,8.13
2019-04-24T09:21:23.496Z,9.18
2019-04-24T09:32:36.336Z,8.83
2019-04-24T09:34:32.579Z,7.22
2019-04-24T09:37:11.362Z,10.23
2019-04-24T09:43:20.457Z,10.70
2019-04-24T09:45:34.278Z,10.28
2019-04-24T09:50:51.202Z,9.00
2019-04-24T09:55:49.568Z,9.23
2019-04-24T09:58:34.412Z,12.85
2019-04-24T10:08:55.468Z,6.37
2019-04-24T10:11:51.418Z,5.62
2019-04-24T10:14:26.809Z,13.85
2019-04-24T10:22:44.120Z,5.78
2019-04-24T10:25:17.365Z,7.92
2019-04-24T10:28:21.648Z,8.03
2019-04-24T10:31:17.124Z,11.83
2019-04-24T10:34:06.025Z,6.65
2019-04-24T10:36:55.994Z,7.97
2019-04-24T10:42:17.925Z,9.33
2019-04-24T10:45:12.125Z,7.67
2019-04-24T10:48:00.177Z,7.42
2019-04-24T10:50:42.623Z,6.70
2019-04-24T10:53:14.962Z,5.55
2019-04-24T11:01:17.417Z,6.90
2019-04-24T11:04:01.047Z,4.12
2019-04-24T11:09:29.366Z,10.68
2019-04-24T11:17:22.629Z,8.58
2019-04-24T11:19:55.927Z,8.65
2019-04-24T11:22:32.005Z,7.90
2019-04-24T11:25:19.949Z,4.92
2019-04-24T11:27:54.135Z,5.62
2019-04-24T11:30:13.746Z,9.38
2019-04-24T11:33:35.673Z,7.95
2019-04-24T11:44:12.500Z,7.75
2019-04-24T11:49:41.963Z,14.73
2019-04-24T11:52:43.286Z,9.98
2019-04-24T11:58:03.242Z,9.68
2019-04-24T11:59:53.296Z,8.20
2019-04-24T12:02:56.131Z,8.75
2019-04-24T12:05:42.196Z,6.75
2019-04-24T12:08:22.494Z,9.50
2019-04-24T12:10:59.142Z,5.90
2019-04-24T12:21:56.559Z,7.70
2019-04-24T12:26:39.373Z,11.25
2019-04-24T12:29:30.173Z,8.10
2019-04-24T12:32:06.923Z,8.53
2019-04-24T12:34:44.166Z,4.47
2019-04-24T12:37:20.695Z,7.72
2019-04-24T12:42:27.323Z,6.87
2019-04-24T12:44:56.504Z,7.28
2019-04-24T12:47:29.593Z,7.23
2019-04-24T12:52:29.291Z,8.85
2019-04-24T12:55:12.561Z,9.10
2019-04-24T13:00:56.784Z,7.50
2019-04-24T13:03:44.320Z,3.52
2019-04-24T13:08:54.187Z,4.42
2019-04-24T13:13:56.345Z,6.83
2019-04-24T13:16:35.764Z,8.28
2019-04-24T13:19:13.143Z,5.22
2019-04-24T13:21:15.363Z,6.50
2019-04-24T13:23:53.312Z,5.33
2019-04-24T13:26:47.093Z,6.10
2019-04-24T13:29:17.460Z,5.05
2019-04-24T13:32:10.057Z,5.87
2019-04-24T13:34:54.228Z,3.52
2019-04-24T13:37:16.140Z,8.10
2019-04-24T13:42:17.402Z,4.95
2019-04-24T13:45:02.699Z,8.13
2019-04-24T13:47:25.964Z,6.50
2019-04-24T13:53:12.116Z,6.55
2019-04-24T13:55:05.764Z,4.12
2019-04-24T13:57:32.940Z,7.72
2019-04-24T14:00:16.634Z,2.83
2019-04-24T14:03:03.386Z,5.67
2019-04-24T14:05:10.655Z,9.30
2019-04-24T14:07:49.150Z,7.30
2019-04-24T14:10:36.390Z,5.37
2019-04-24T14:15:15.287Z,5.50
2019-04-24T14:17:55.227Z,6.72
2019-04-24T14:23:14.016Z,6.42
2019-04-24T14:25:50.223Z,6.03
2019-04-24T14:31:02.439Z,6.97
2019-04-24T14:33:37.712Z,6.22
2019-04-24T14:36:02.323Z,7.03
2019-04-24T14:38:29.621Z,7.72
2019-04-24T14:46:21.764Z,6.95
2019-04-24T14:48:57.093Z,3.00
2019-04-24T14:51:17.754Z,16.95
2019-04-24T14:53:54.231Z,5.37
2019-04-24T14:56:19.473Z,6.83
2019-04-24T15:01:31.458Z,3.98
2019-04-24T15:04:07.556Z,5.08
2019-04-24T15:06:30.024Z,5.17
2019-04-24T15:09:08.437Z,5.78
2019-04-24T15:11:53.637Z,9.63
2019-04-24T15:14:19.503Z,4.87
2019-04-24T15:16:52.958Z,6.35
2019-04-24T15:22:06.472Z,9.33
2019-04-24T15:26:57.089Z,4.77
2019-04-24T15:29:31.504Z,3.12
2019-04-24T15:32:06.416Z,7.10
2019-04-24T15:34:33.741Z,5.10
2019-04-24T15:37:12.096Z,7.28
2019-04-24T15:42:29.238Z,4.42
2019-04-24T15:44:48.382Z,6.70
2019-04-24T15:47:35.479Z,7.00
2019-04-24T15:49:55.910Z,5.55
2019-04-24T15:51:47.819Z,6.00
2019-04-24T15:54:18.183Z,10.28
2019-04-24T15:56:48.347Z,8.10
2019-04-24T15:59:45.318Z,6.62
2019-04-24T16:02:23.239Z,8.60
2019-04-24T16:07:05.259Z,11.38
2019-04-24T16:09:36.797Z,8.35
2019-04-24T16:12:07.137Z,6.87
2019-04-24T16:15:01.243Z,6.45
2019-04-24T16:17:41.569Z,8.33
2019-04-24T16:22:44.055Z,9.28
2019-04-24T16:25:31.440Z,6.95
2019-04-24T16:33:13.575Z,7.90
2019-04-24T16:43:47.692Z,8.70
2019-04-24T16:46:40.001Z,7.10
2019-04-24T16:56:25.095Z,8.58
2019-04-24T16:58:47.715Z,11.68
2019-04-24T17:06:30.115Z,9.88
2019-04-24T17:09:50.921Z,7.33
2019-04-24T17:17:22.730Z,8.90
2019-04-24T17:19:47.563Z,7.37
2019-04-24T17:22:02.960Z,9.15
2019-04-24T17:36:46.822Z,12.05
2019-04-24T17:39:23.079Z,11.43
2019-04-24T17:41:58.378Z,7.72
2019-04-24T17:44:57.227Z,10.40
2019-04-24T17:50:10.820Z,9.38
2019-04-24T17:54:59.473Z,13.13
2019-04-24T17:59:37.508Z,6.80
2019-04-24T18:02:14.547Z,6.80
2019-04-24T18:04:44.746Z,6.22
2019-04-24T18:07:14.957Z,8.85
2019-04-24T18:09:45.206Z,5.33
2019-04-24T18:12:15.672Z,5.62
2019-04-24T18:14:45.955Z,5.90
2019-04-24T18:17:16.193Z,6.40
2019-04-24T18:19:46.441Z,9.10
2019-04-24T18:22:16.688Z,4.00
2019-04-24T18:25:18.206Z,8.45
2019-04-24T18:27:49.902Z,5.17
2019-04-24T18:30:22.379Z,26.53
2019-04-24T18:32:52.718Z,11.05
2019-04-24T18:35:22.982Z,3.57
2019-04-24T18:38:05.619Z,11.63
2019-04-24T18:40:28.581Z,15.25
2019-04-24T18:42:58.896Z,4.35
2019-04-24T18:45:29.223Z,5.10
2019-04-24T18:47:59.393Z,4.55
2019-04-24T18:50:29.961Z,3.80
2019-04-24T18:53:01.900Z,2.90
2019-04-24T18:55:32.022Z,2.95
2019-04-24T18:58:02.273Z,7.28
2019-04-24T19:00:32.589Z,7.50
2019-04-24T19:03:02.784Z,5.80
2019-04-24T19:05:33.284Z,3.42
2019-04-24T19:08:03.576Z,4.53
2019-04-24T19:10:34.098Z,3.42
2019-04-24T19:13:04.370Z,3.20
2019-04-24T19:15:35.043Z,3.70
2019-04-24T19:18:05.270Z,2.97
2019-04-24T19:20:35.472Z,3.27
2019-04-24T19:23:07.078Z,2.80
2019-04-24T19:25:37.695Z,4.20
2019-04-24T19:28:09.042Z,3.20
2019-04-24T19:30:39.348Z,3.57
2019-04-24T19:33:10.110Z,4.20
2019-04-24T19:35:41.769Z,4.40
2019-04-24T19:38:12.914Z,7.60
2019-04-24T19:40:43.773Z,3.47
2019-04-24T19:43:14.409Z,3.63
2019-04-24T19:45:45.400Z,3.80
2019-04-24T19:48:15.632Z,2.13
2019-04-24T19:50:45.851Z,1.23
2019-04-24T19:53:21.557Z,2.47
2019-04-24T19:55:47.758Z,2.63
2019-04-24T19:58:18.438Z,1.50
2019-04-24T20:00:48.752Z,2.50
2019-04-24T20:03:19.562Z,1.30
2019-04-24T20:05:53.394Z,0.83
2019-04-24T20:08:24.676Z,1.47
2019-04-24T20:11:02.596Z,2.43
2019-04-24T20:13:32.887Z,3.30
2019-04-24T20:16:03.130Z,1.77
2019-04-24T20:18:33.484Z,1.67
2019-04-24T20:21:03.859Z,2.67
2019-04-24T20:23:36.884Z,2.30
2019-04-24T20:26:06.443Z,1.07
2019-04-24T20:28:36.849Z,0.80
2019-04-24T20:31:07.328Z,1.73
2019-04-24T20:33:37.651Z,3.77
2019-04-24T20:36:07.973Z,2.33
2019-04-24T20:38:38.300Z,1.70
2019-04-24T20:41:08.600Z,1.53
2019-04-24T20:43:38.878Z,0.87
2019-04-24T20:46:09.319Z,0.80
2019-04-24T20:48:39.621Z,2.03
2019-04-24T20:51:09.857Z,2.10
2019-04-24T20:53:40.534Z,1.03
2019-04-24T20:56:10.771Z,0.73
2019-04-24T20:58:42.532Z,1.63
2019-04-24T21:01:13.964Z,1.17
2019-04-24T21:03:44.234Z,0.70
2019-04-24T21:06:33.481Z,1.37
2019-04-24T21:09:21.054Z,1.30
2019-04-24T21:11:53.113Z,2.50
2019-04-24T21:14:23.414Z,1.50
2019-04-24T21:16:53.734Z,1.33
2019-04-24T21:19:27.152Z,0.97
2019-04-24T21:21:57.319Z,2.33
2019-04-24T21:24:28.434Z,1.00
2019-04-24T21:26:59.347Z,0.90
2019-04-24T21:29:29.582Z,0.67
2019-04-24T21:31:59.876Z,0.93
2019-04-24T21:34:30.117Z,1.27
2019-04-24T21:37:00.347Z,1.07
2019-04-24T21:39:31.478Z,1.43
2019-04-24T21:42:02.565Z,0.77
2019-04-24T21:44:33.778Z,1.00
2019-04-24T21:47:04.684Z,1.20
2019-04-24T21:49:34.883Z,1.80
2019-04-24T21:52:05.086Z,1.47
2019-04-24T21:54:35.224Z,0.97
2019-04-24T21:57:05.521Z,0.70
2019-04-24T21:59:35.775Z,2.27
2019-04-24T22:02:27.219Z,0.80
2019-04-24T22:05:04.394Z,0.80
2019-04-24T22:07:37.390Z,1.97
2019-04-24T22:10:07.610Z,1.30
2019-04-24T22:12:37.925Z,2.10
2019-04-24T22:15:09.365Z,0.80
2019-04-24T22:17:42.945Z,0.97
2019-04-24T22:20:21.841Z,1.37
2019-04-24T22:23:09.082Z,0.80
2019-04-24T22:25:47.466Z,1.20
2019-04-24T22:28:17.795Z,2.83
2019-04-24T22:31:05.851Z,2.30
2019-04-24T22:33:41.434Z,1.50
2019-04-24T22:36:11.955Z,0.80
2019-04-24T22:38:48.859Z,0.47
2019-04-24T22:41:19.201Z,0.40
2019-04-24T22:43:49.443Z,0.50
2019-04-24T22:46:22.381Z,1.73
2019-04-24T22:48:53.350Z,1.67
2019-04-24T22:51:23.563Z,0.70
2019-04-24T22:53:53.786Z,0.60
2019-04-24T22:56:23.986Z,0.57
2019-04-24T22:58:54.198Z,1.10
2019-04-24T23:01:24.404Z,0.83
2019-04-24T23:03:54.584Z,1.17
2019-04-24T23:06:24.819Z,0.60
2019-04-24T23:08:55.166Z,0.90
2019-04-24T23:11:25.497Z,1.00
2019-04-24T23:13:55.716Z,0.73
2019-04-24T23:16:26.025Z,1.00
2019-04-24T23:18:56.157Z,1.30
2019-04-24T23:21:36.152Z,1.10
2019-04-24T23:24:15.315Z,3.20
2019-04-24T23:26:59.507Z,1.17
2019-04-24T23:29:44.647Z,2.17
2019-04-24T23:32:26.348Z,2.00
2019-04-24T23:34:56.615Z,1.40
2019-04-24T23:37:26.830Z,1.60
2019-04-24T23:39:57.019Z,0.80
2019-04-24T23:42:27.263Z,0.80
2019-04-24T23:44:57.469Z,1.10
2019-04-24T23:47:27.696Z,0.50
2019-04-24T23:49:57.925Z,0.80
2019-04-24T23:52:28.219Z,1.33
2019-04-24T23:55:04.130Z,0.90
2019-04-24T23:57:30.397Z,0.87
